neil on the web!

ADDS Results

0848 UTC 20 October 2019

EGJB 200820Z 02004KT 9999 FEW029 11/07 Q1008
EGJB 200750Z 03004KT 9999 FEW027 10/07 Q1008
EGJB 200720Z 01004KT 9999 FEW025 10/07 Q1008
EGJB 200650Z 01005KT 9999 FEW025 09/06 Q1007
TAF EGJB 200800Z 2009/2018 03010KT 9999 FEW025
EGJJ 200750Z 03005KT 9999 VCSH FEW020 SCT025 11/10 Q1008
EGJJ 200720Z VRB03KT 9999 -SHRA FEW022 SCT030 11/09 Q1007 RESHRA
EGJJ 200650Z 08007KT 9999 SHRA FEW025 SCT038 10/08 Q1007 RESHRA
TAF EGJJ 200800Z 2009/2018 03010KT 9999 FEW025
EGKK 200820Z 32004KT 3600 BR FEW007 BKN013 07/07 Q1009
EGKK 200750Z 31004KT 280V350 5000 BR SCT007 BKN011 07/07 Q1009
EGKK 200720Z 32004KT 280V020 4000 BR BKN005 OVC009 07/07 Q1009
EGKK 200650Z 34004KT 290V030 4300 BR BKN003 BKN006 07/07 Q1008
TAF AMD EGKK 200706Z 2007/2112 01009KT 9999 FEW030
TEMPO 2007/2009 4000 BR BKN003
TEMPO 2009/2012 7000 BKN008
TEMPO 2022/2112 7000 BKN008
PROB30
TEMPO 2106/2112 RA
EGSS 200820Z AUTO 35005KT 320V020 9999 NCD 07/07 Q1009
EGSS 200750Z AUTO 32004KT 8000 NCD 05/05 Q1009
EGSS 200720Z 33004KT 7000 NSC 04/04 Q1009
EGSS 200650Z 33004KT 3000 BCFG NSC 04/04 Q1008
TAF EGSS 200457Z 2006/2112 35010KT 4000 BR BKN011
BECMG 2006/2009 9999 NSW FEW011
PROB30
TEMPO 2006/2007 BKN006
TEMPO 2009/2012 BKN014
TEMPO 2017/2112 BKN012
PROB40
TEMPO 2102/2112 7000 RA BKN009
EGGW 200820Z AUTO 35010KT 310V010 9999 NCD 08/06 Q1009
EGGW 200750Z AUTO 34009KT 300V020 9999 NCD 08/06 Q1009
EGGW 200720Z AUTO 32007KT 280V350 9999 FEW022 07/06 Q1009
EGGW 200650Z 32006KT 290V360 7000 BKN016 07/06 Q1008
TAF EGGW 200457Z 2006/2106 35012KT 4000 BR BKN009
BECMG 2006/2009 9999 NSW FEW012
PROB30
TEMPO 2006/2007 BKN004
TEMPO 2009/2012 BKN012
TEMPO 2017/2106 BKN010
PROB30
TEMPO 2102/2106 7000 RA BKN009
EGSH 200820Z 29004KT 8000 FEW024 08/08 Q1009
EGSH 200750Z 30005KT 9999 FEW024 07/07 Q1008 NOSIG
EGSH 200720Z VRB02KT 7000 MIFG FEW008 05/05 Q1008
EGSH 200650Z VRB02KT 7000 FEW008 05/05 Q1008 NOSIG
TAF EGSH 200801Z 2009/2018 32005KT 9999 FEW030
PROB30
TEMPO 2009/2015 BKN010
EGLC 200820Z AUTO 30004KT 9999 NCD 08/06 Q1010
EGLC 200750Z AUTO 30004KT 9000 NCD 08/06 Q1009
EGLC 200720Z AUTO 30003KT 9999 NCD 08/06 Q1009
EGLC 200650Z AUTO 29004KT 9999 NCD 07/06 Q1009
TAF EGLC 200757Z 2009/2018 01008KT 9999 FEW030
EGMC 200820Z 32003KT CAVOK 06/06 Q1009
EGMC 200750Z 01002KT CAVOK 05/05 Q1009
EGMC 200720Z VRB02KT CAVOK 05/05 Q1009
EGMC 200650Z VRB02KT CAVOK 05/05 Q1008
TAF EGMC 200757Z 2009/2018 36008KT 9999 FEW030
EGLL 200820Z AUTO VRB02KT 9999 FEW023/// 08/07 Q1010
EGLL 200750Z AUTO VRB01KT 9999 NCD 07/07 Q1009
EGLL 200720Z AUTO VRB03KT 9999 BKN024/// 07/06 Q1009
EGLL 200650Z AUTO VRB03KT 9999 BKN018/// BKN023/// 07/07 Q1009 NOSIG
TAF EGLL 200500Z 2006/2112 24006KT 9999 FEW035
TEMPO 2006/2011 8000 BKN009
PROB30 2006/2007 4000 BR
BECMG 2008/2011 01010KT
TEMPO 2100/2110 BKN012
PROB30
TEMPO 2100/2107 8000 BKN009
EGHI 200820Z 35004KT 9999 FEW018 08/07 Q1010
EGHI 200750Z 02003KT 9999 FEW018 07/06 Q1009
EGHI 200720Z VRB02KT 9999 SCT015 07/06 Q1009
TAF EGHI 200801Z 2009/2018 01006KT 9999 FEW035
EGHH 200820Z 36003KT 9999 FEW048 07/07 Q1010
EGHH 200750Z 35003KT 9000 FEW048 06/05 Q1009
EGHH 200720Z 01002KT 9999 MIFG FEW048 05/05 Q1009
EGHH 200650Z 36003KT 8000 MIFG SCT048 03/03 Q1009
TAF EGHH 200801Z 2009/2018 02008KT 9999 FEW035
EGCC 200820Z AUTO 30004KT 9999 BKN039 07/05 Q1011
EGCC 200750Z AUTO 29005KT 9999 FEW038 07/05 Q1011 NOSIG
EGCC 200720Z AUTO 27003KT 9999 FEW039 06/05 Q1011 NOSIG
EGCC 200650Z AUTO VRB03KT 9999 NCD 07/05 Q1010 NOSIG
TAF EGCC 200456Z 2006/2112 29005KT 9999 FEW015 SCT030
PROB30
TEMPO 2006/2008 5000 BR
BECMG 2010/2013 35010KT
PROB30
TEMPO 2012/2018 7000 SHRA
PROB30
TEMPO 2018/2106 9000 BKN014
EGNX 200820Z 29004KT 260V320 CAVOK 08/06 Q1011
EGNX 200750Z 28004KT CAVOK 07/05 Q1010
EGNX 200720Z 29004KT CAVOK 06/05 Q1010
EGNX 200650Z 30004KT CAVOK 07/05 Q1009
TAF EGNX 200456Z 2006/2106 VRB04KT 9999 FEW027
BECMG 2006/2009 35010KT
PROB30 2006/2008 6000
PROB30
TEMPO 2008/2011 BKN012
PROB30
TEMPO 2013/2024 7000 -SHRA BKN010
TEMPO 2100/2106 8000 BKN008
EGGP 200820Z 34007KT 9999 FEW040 09/06 Q1012
EGGP 200750Z 01005KT 340V040 9999 FEW033 SCT048 09/05 Q1012
EGGP 200720Z 36009KT 330V030 9999 FEW035 SCT043 08/05 Q1011
EGGP 200650Z 35012KT 9999 SCT049 08/05 Q1011
TAF EGGP 200456Z 2006/2106 34007KT 9999 FEW030
PROB30 2006/2008 6000
PROB30
TEMPO 2012/2018 6000 SHRA
PROB30
TEMPO 2103/2106 4000 BR
EGNM 200820Z 33011KT 290V360 9999 FEW020 08/04 Q1011
EGNM 200750Z 31011KT 9999 FEW022 SCT031 07/04 Q1010
EGNM 200720Z 31009KT 9999 FEW022 SCT031 07/04 Q1010
EGNM 200650Z 30010KT 9999 SCT021 SCT028 06/04 Q1010
TAF EGNM 200455Z 2006/2106 30009KT 9999 SCT022
PROB30
TEMPO 2006/2009 6000 BKN012
BECMG 2008/2011 36010KT
PROB30
TEMPO 2012/2018 6000 SHRA BKN009
PROB30
TEMPO 2018/2103 9000 BKN010
BECMG 2021/2024 30008KT
EGBB 200820Z 32007KT 9999 FEW028 08/06 Q1011
EGBB 200750Z 32007KT 9999 BKN041 08/06 Q1010
EGBB 200720Z 32007KT 9999 SCT041 07/06 Q1010
EGBB 200650Z 32006KT 9999 FEW033 SCT046 07/06 Q1010
TAF EGBB 200456Z 2006/2106 23007KT 9999 SCT024
PROB30 2006/2008 3000 BR
BECMG 2007/2010 35010KT
PROB40
TEMPO 2008/2011 6000 BKN012
PROB30
TEMPO 2015/2024 8000 -SHRA BKN010
TEMPO 2100/2106 8000 BKN009
EGGD 200820Z 01010KT 9999 SCT040 07/05 Q1010
EGGD 200750Z 01007KT 9999 FEW034 SCT037 07/05 Q1010
EGGD 200720Z AUTO 36009KT 9999 BKN033 06/05 Q1010
EGGD 200650Z AUTO 35008KT 310V020 9999 NCD 06/05 Q1009
TAF EGGD 200455Z 2006/2106 01010KT 9999 FEW008
PROB40
TEMPO 2006/2008 9000 BKN008
PROB30
TEMPO 2008/2012 BKN013
BECMG 2018/2021 BKN012
TEMPO 2021/2106 9000 -SHRA BKN007
PROB30
TEMPO 2021/2106 SCT012
EGFF 200820Z AUTO 01010KT 9999 NCD 08/05 Q1011
EGFF 200750Z AUTO 02011KT 9999 NCD 07/05 Q1011
EGFF 200720Z AUTO 02009KT 9999 NCD 06/04 Q1010
EGFF 200650Z AUTO 01009KT 9999 NCD 05/04 Q1010
TAF EGFF 200455Z 2006/2106 02010KT 9999 FEW014
PROB30
TEMPO 2020/2106 9000 -SHRA BKN014
EGTE 200820Z 01004KT 330V050 CAVOK 09/07 Q1010
EGTE 200750Z 04004KT CAVOK 09/08 Q1010
EGTE 200720Z 02006KT CAVOK 08/06 Q1010
EGTE 200650Z 01006KT CAVOK 09/07 Q1009
TAF EGTE 200801Z 2009/2018 02008KT 9999 FEW035
EGPF 200820Z AUTO 33006KT 9999 NCD 06/03 Q1015
EGPF 200750Z AUTO 27004KT 240V310 9999 NCD 04/02 Q1015
EGPF 200720Z AUTO 22003KT 9999 NCD 04/01 Q1014
EGPF 200650Z AUTO 32005KT 9999 NCD 04/02 Q1014
TAF EGPF 200501Z 2006/2106 34007KT 9999 FEW045
EGPH 200820Z 30004KT 270V340 9999 FEW030 08/04 Q1014
EGPH 200750Z VRB03KT 9999 SCT045 08/04 Q1013
EGPH 200720Z VRB03KT 9999 SCT047 08/04 Q1013
EGPH 200650Z 31004KT 270V350 9999 BKN048 07/04 Q1012
TAF EGPH 200501Z 2006/2106 33009KT 9999 SCT040
EGPK 200820Z 00000KT 9999 FEW040 03/01 Q1015
EGPK 200750Z 07002KT 9999 FEW040 03/01 Q1015
EGPK 200720Z 32004KT 9999 FEW040 02/01 Q1014
EGPK 200650Z 32004KT 9999 FEW040 02/00 Q1014
TAF EGPK 200501Z 2006/2106 35008KT 9999 FEW040
EHAM 200825Z VRB02KT CAVOK 11/10 Q1008 NOSIG
EHAM 200755Z 14002KT CAVOK 10/09 Q1008 NOSIG
EHAM 200725Z 16003KT 9999 FEW032 09/09 Q1007 NOSIG
EHAM 200655Z 15003KT CAVOK 09/09 Q1007 NOSIG
TAF EHAM 200439Z 2006/2112 17005KT 9999 SCT025
PROB40
TEMPO 2006/2008 4000 BR
BECMG 2013/2016 05007KT
BECMG 2021/2024 04012KT 6000 -RADZ BKN012
BECMG 2101/2104 3500 BR -DZ BKN006
PROB30 2104/2108 2000 BKN004
BECMG 2105/2108 18012KT
BECMG 2108/2111 7000 NSW BKN014
LFLS 200830Z AUTO 17014KT 130V190 CAVOK 22/09 Q1007 TEMPO 18015G25KT
LFLS 200800Z AUTO 17017G28KT 140V200 CAVOK 22/09 Q1006 TEMPO 18006KT
LFLS 200730Z AUTO 17015G27KT 140V200 CAVOK 21/10 Q1006 TEMPO 18006KT
LFLS 200700Z AUTO 17008KT 140V200 CAVOK 20/10 Q1006 NOSIG
TAF LFLS 200800Z 2009/2109 18012KT CAVOK
TEMPO 2009/2014 18015G25KT
PROB40
TEMPO 2014/2020 20020G42KT
TEMPO 2019/2109 5000 RA BKN014 SCT030TCU BKN033
PROB40
TEMPO 2022/2109 3000 TSRA BKN014 BKN033CB
LFLL 200830Z VRB03KT 9999 FEW050 SCT100 BKN210 17/13 Q1005 NOSIG
LFLL 200800Z 07002KT CAVOK 16/13 Q1006 NOSIG
LFLL 200730Z 00000KT CAVOK 16/12 Q1006 NOSIG
LFLL 200700Z VRB02KT CAVOK 16/12 Q1005 NOSIG
TAF LFLL 200500Z 2006/2112 15010KT CAVOK
PROB30
TEMPO 2006/2013 18015G25KT FEW080TCU
TEMPO 2013/2016 18025G35KT
TEMPO 2016/2021 2000 TSRA BKN050CB
PROB40
TEMPO 2016/2018 25025G45KT
TEMPO 2021/2112 3000 RA BKN012
PROB40
TEMPO 2021/2104 FEW030CB
BECMG 2023/2101 VRB02KT
LFLC 200830Z AUTO 17009KT CAVOK 17/13 Q1003 TEMPO 18016G32KT
LFLC 200800Z AUTO 17005KT 140V200 CAVOK 12/12 Q1002 NOSIG
LFLC 200730Z AUTO VRB02KT CAVOK 11/11 Q1002 NOSIG
LFLC 200700Z AUTO VRB02KT CAVOK 10/10 Q1002 TEMPO 4000 BR
TAF LFLC 200800Z 2009/2109 16012KT 9999 SCT050
TEMPO 2010/2016 18016G32KT
TEMPO 2012/2019 5000 SHRA SCT030 SCT050TCU OVC080
PROB40
TEMPO 2012/2019 3000 TSRA SCT015 BKN040CB
LFRD 200830Z AUTO 04003KT 9999 ///TCU 12/10 Q1008 TEMPO SHRA
LFRD 200800Z AUTO 04004KT 9999 ///CB 12/10 Q1007 TEMPO SHRA BKN020
LFRD 200730Z AUTO 05004KT CAVOK 11/10 Q1007 TEMPO SHRA BKN020TCU
LFRD 200700Z AUTO 04003KT 9999 ///TCU 11/10 Q1007 BECMG BKN020
TAF LFRD 200500Z 2006/2106 36003KT 9999 BKN020
BECMG 2008/2010 02010KT
PROB40
TEMPO 2009/2106 5000 SHRA BKN020TCU
BECMG 2100/2103 34008KT
LFRC 200830Z AUTO 02006KT 9999 SCT023 11/08 Q1008 TEMPO SHRA
LFRC 200800Z AUTO 03005KT 9999 SCT025 12/08 Q1008 TEMPO SHRA
LFRC 200730Z AUTO 02005KT 9999 BKN024 BKN030 BKN064 11/08 Q1008 TEMPO SHRA
LFRC 200700Z AUTO 02005KT 9999 SCT024/// SCT029/// BKN045/// ///TCU 11/08 Q1007
TEMPO SHRA BECMG BKN025
TAF LFRC 200800Z 2009/2018 02010KT 9999 SCT020
PROB30
TEMPO 2009/2018 5000 SHRA
TEMPO 2015/2018 02015G25KT
VHHH 200830Z 16009KT 130V200 9999 FEW030 27/19 Q1014 NOSIG
VHHH 200800Z 24003KT 190V300 9999 FEW030 27/18 Q1014 NOSIG
VHHH 200730Z 25006KT 220V340 9999 FEW030 28/19 Q1014 NOSIG
VHHH 200700Z 25007KT 9999 FEW030 28/20 Q1014 NOSIG
TAF VHHH 200500Z 2006/2112 07010KT 9999 FEW030 TX29/2006Z TX29/2106Z TN24/2022Z
TEMPO 2006/2010 29010KT
TEMPO 2010/2016 14010KT
TEMPO 2020/2103 VRB05KT
TEMPO 2103/2109 29010KT
TEMPO 2109/2112 14010KT